createdAt,value
2018-12-14T00:00:19.566Z,98437.87
2018-12-14T00:02:49.188Z,98441.06
2018-12-14T00:05:18.782Z,98439.28
2018-12-14T00:07:49.319Z,98446.53
2018-12-14T00:10:18.917Z,98446.53
2018-12-14T00:12:48.599Z,98443.19
2018-12-14T00:15:18.316Z,98440.55
2018-12-14T00:17:47.905Z,98433.09
2018-12-14T00:20:17.537Z,98442.28
2018-12-14T00:22:47.186Z,98439.00
2018-12-14T00:25:16.792Z,98438.30
2018-12-14T00:27:46.428Z,98438.69
2018-12-14T00:30:16.062Z,98434.88
2018-12-14T00:32:45.668Z,98438.47
2018-12-14T00:35:15.590Z,98442.14
2018-12-14T00:37:45.280Z,98439.52
2018-12-14T00:40:14.880Z,98443.39
2018-12-14T00:42:44.540Z,98451.16
2018-12-14T00:45:14.108Z,98454.44
2018-12-14T00:47:43.764Z,98454.75
2018-12-14T00:50:13.354Z,98449.23
2018-12-14T00:52:42.989Z,98453.23
2018-12-14T00:55:12.708Z,98459.02
2018-12-14T00:57:42.424Z,98459.36
2018-12-14T01:00:12.466Z,98458.62
2018-12-14T01:02:42.050Z,98461.70
2018-12-14T01:05:11.711Z,98463.45
2018-12-14T01:07:41.279Z,98464.95
2018-12-14T01:10:11.099Z,98468.18
2018-12-14T01:12:40.859Z,98467.47
2018-12-14T01:15:10.534Z,98471.52
2018-12-14T01:17:40.118Z,98468.91
2018-12-14T01:20:10.690Z,98467.12
2018-12-14T01:22:40.305Z,98461.53
2018-12-14T01:25:10.060Z,98460.48
2018-12-14T01:27:39.653Z,98463.91
2018-12-14T01:30:09.509Z,98467.25
2018-12-14T01:32:39.110Z,98469.05
2018-12-14T01:35:08.915Z,98465.31
2018-12-14T01:37:38.485Z,98466.11
2018-12-14T01:40:09.201Z,98466.56
2018-12-14T01:42:38.811Z,98472.18
2018-12-14T01:45:08.558Z,98477.95
2018-12-14T01:47:38.160Z,98479.78
2018-12-14T01:50:08.112Z,98479.94
2018-12-14T01:52:38.076Z,98477.84
2018-12-14T01:55:07.856Z,98471.53
2018-12-14T01:57:37.798Z,98469.69
2018-12-14T02:00:08.000Z,98468.50
2018-12-14T02:02:37.627Z,98470.94
2018-12-14T02:05:07.392Z,98460.98
2018-12-14T02:07:37.058Z,98460.66
2018-12-14T02:10:06.717Z,98452.03
2018-12-14T02:12:36.394Z,98454.91
2018-12-14T02:15:06.635Z,98457.81
2018-12-14T02:17:36.316Z,98456.17
2018-12-14T02:20:07.276Z,98457.33
2018-12-14T02:22:36.962Z,98461.92
2018-12-14T02:25:06.906Z,98461.44
2018-12-14T02:27:36.570Z,98460.67
2018-12-14T02:30:23.144Z,98460.84
2018-12-14T02:32:52.756Z,98465.31
2018-12-14T02:35:22.410Z,98462.77
2018-12-14T02:37:52.267Z,98461.67
2018-12-14T02:40:21.929Z,98455.36
2018-12-14T02:42:51.569Z,98456.55
2018-12-14T02:45:21.256Z,98458.35
2018-12-14T02:47:50.988Z,98460.97
2018-12-14T02:50:20.641Z,98460.53
2018-12-14T02:52:50.239Z,98458.50
2018-12-14T02:55:19.951Z,98456.02
2018-12-14T02:57:49.512Z,98458.80
2018-12-14T03:00:19.141Z,98456.30
2018-12-14T03:02:48.844Z,98453.56
2018-12-14T03:05:18.435Z,98455.76
2018-12-14T03:07:48.033Z,98450.26
2018-12-14T03:10:17.617Z,98459.29
2018-12-14T03:12:47.673Z,98458.95
2018-12-14T03:15:17.281Z,98460.44
2018-12-14T03:17:46.913Z,98463.92
2018-12-14T03:20:16.527Z,98459.30
2018-12-14T03:22:46.215Z,98457.27
2018-12-14T03:25:15.816Z,98462.00
2018-12-14T03:27:45.513Z,98461.00
2018-12-14T03:30:15.104Z,98458.97
2018-12-14T03:32:44.777Z,98452.05
2018-12-14T03:35:14.484Z,98456.73
2018-12-14T03:37:44.172Z,98457.41
2018-12-14T03:40:13.809Z,98453.59
2018-12-14T03:42:43.485Z,98454.84
2018-12-14T03:45:13.097Z,98455.08
2018-12-14T03:47:42.713Z,98459.80
2018-12-14T03:50:12.393Z,98460.59
2018-12-14T03:52:42.061Z,98465.17
2018-12-14T03:55:11.691Z,98461.27
2018-12-14T03:57:41.361Z,98459.58
2018-12-14T04:00:11.359Z,98464.02
2018-12-14T04:02:40.972Z,98464.47
2018-12-14T04:05:10.586Z,98464.88
2018-12-14T04:07:40.310Z,98462.86
2018-12-14T04:10:09.915Z,98465.83
2018-12-14T04:12:41.894Z,98462.16
2018-12-14T04:15:11.442Z,98459.36
2018-12-14T04:17:41.099Z,98465.03
2018-12-14T04:20:10.762Z,98467.07
2018-12-14T04:22:40.402Z,98471.11
2018-12-14T04:25:10.023Z,98479.41
2018-12-14T04:27:39.709Z,98485.34
2018-12-14T04:30:09.368Z,98484.92
2018-12-14T04:32:39.038Z,98491.14
2018-12-14T04:35:08.771Z,98486.66
2018-12-14T04:37:38.562Z,98478.85
2018-12-14T04:40:09.083Z,98486.41
2018-12-14T04:42:39.268Z,98481.67
2018-12-14T04:45:08.997Z,98482.19
2018-12-14T04:47:38.762Z,98484.53
2018-12-14T04:50:08.532Z,98483.84
2018-12-14T04:52:38.235Z,98477.47
2018-12-14T04:55:07.881Z,98479.20
2018-12-14T04:57:37.569Z,98480.45
2018-12-14T05:00:07.974Z,98483.39
2018-12-14T05:02:37.714Z,98482.84
2018-12-14T05:05:07.702Z,98489.91
2018-12-14T05:07:37.469Z,98489.22
2018-12-14T05:10:07.477Z,98495.38
2018-12-14T05:12:37.286Z,98496.13
2018-12-14T05:15:07.872Z,98496.08
2018-12-14T05:17:37.719Z,98498.27
2018-12-14T05:20:08.023Z,98502.84
2018-12-14T05:22:37.728Z,98494.44
2018-12-14T05:25:07.644Z,98493.34
2018-12-14T05:27:37.381Z,98495.38
2018-12-14T05:30:08.294Z,98497.92
2018-12-14T05:32:38.110Z,98495.98
2018-12-14T05:35:08.002Z,98492.66
2018-12-14T05:37:37.684Z,98497.17
2018-12-14T05:40:07.397Z,98495.04
2018-12-14T05:42:37.051Z,98494.13
2018-12-14T05:45:07.674Z,98495.03
2018-12-14T05:47:37.339Z,98494.34
2018-12-14T05:50:08.104Z,98493.50
2018-12-14T05:52:37.788Z,98499.32
2018-12-14T05:55:07.561Z,98498.63
2018-12-14T05:57:37.345Z,98499.56
2018-12-14T06:00:10.496Z,98497.53
2018-12-14T06:02:40.099Z,98499.95
2018-12-14T06:05:09.852Z,98496.92
2018-12-14T06:07:39.453Z,98494.29
2018-12-14T06:10:09.274Z,98494.74
2018-12-14T06:12:38.959Z,98497.72
2018-12-14T06:15:08.699Z,98496.28
2018-12-14T06:17:38.424Z,98500.34
2018-12-14T06:20:08.657Z,98494.48
2018-12-14T06:22:38.267Z,98494.73
2018-12-14T06:25:08.035Z,98505.77
2018-12-14T06:27:37.765Z,98504.98
2018-12-14T06:30:08.095Z,98507.07
2018-12-14T06:32:37.784Z,98511.05
2018-12-14T06:35:07.878Z,98516.81
2018-12-14T06:37:37.566Z,98514.93
2018-12-14T06:40:07.406Z,98519.91
2018-12-14T06:42:37.084Z,98523.97
2018-12-14T06:45:07.544Z,98526.91
2018-12-14T06:47:37.459Z,98530.80
2018-12-14T06:50:07.360Z,98529.25
2018-12-14T06:52:37.842Z,98537.47
2018-12-14T06:55:07.750Z,98532.50
2018-12-14T06:57:37.443Z,98536.92
2018-12-14T07:00:07.432Z,98538.56
2018-12-14T07:02:37.168Z,98538.66
2018-12-14T07:05:06.996Z,98541.20
2018-12-14T07:07:36.603Z,98548.12
2018-12-14T07:10:06.472Z,98548.52
2018-12-14T07:12:36.175Z,98550.09
2018-12-14T07:15:06.189Z,98551.55
2018-12-14T07:17:35.885Z,98556.31
2018-12-14T07:20:07.209Z,98557.01
2018-12-14T07:22:36.828Z,98554.03
2018-12-14T07:25:06.790Z,98567.16
2018-12-14T07:27:36.427Z,98569.20
2018-12-14T07:30:06.984Z,98572.62
2018-12-14T07:32:38.150Z,98571.38
2018-12-14T07:35:08.247Z,98575.27
2018-12-14T07:37:37.876Z,98570.20
2018-12-14T07:40:08.359Z,98575.41
2018-12-14T07:42:37.994Z,98571.14
2018-12-14T07:45:07.784Z,98578.75
2018-12-14T07:47:37.418Z,98583.42
2018-12-14T07:50:08.164Z,98578.84
2018-12-14T07:52:37.823Z,98585.22
2018-12-14T07:55:08.038Z,98584.67
2018-12-14T07:57:37.658Z,98586.46
2018-12-14T08:00:09.124Z,98586.46
2018-12-14T08:02:38.755Z,98586.52
2018-12-14T08:05:08.839Z,98587.55
2018-12-14T08:07:38.532Z,98585.06
2018-12-14T08:10:08.684Z,98593.28
2018-12-14T08:12:38.386Z,98593.28
2018-12-14T08:15:11.330Z,98600.84
2018-12-14T08:17:39.838Z,98603.72
2018-12-14T08:20:09.738Z,98611.48
2018-12-14T08:22:39.768Z,98609.61
2018-12-14T08:25:09.425Z,98614.03
2018-12-14T08:27:39.137Z,98614.22
2018-12-14T08:30:09.544Z,98618.31
2018-12-14T08:32:39.171Z,98621.44
2018-12-14T08:35:09.046Z,98624.47
2018-12-14T08:37:38.690Z,98635.43
2018-12-14T08:40:09.257Z,98634.64
2018-12-14T08:42:38.925Z,98643.84
2018-12-14T08:45:08.601Z,98648.12
2018-12-14T08:47:38.257Z,98646.23
2018-12-14T08:50:07.924Z,98648.88
2018-12-14T08:52:37.507Z,98652.55
2018-12-14T08:55:07.227Z,98653.55
2018-12-14T08:57:36.875Z,98646.78
2018-12-14T09:00:06.911Z,98650.76
2018-12-14T09:02:36.557Z,98665.05
2018-12-14T09:05:06.897Z,98664.34
2018-12-14T09:07:36.497Z,98666.08
2018-12-14T09:10:07.135Z,98664.75
2018-12-14T09:12:36.770Z,98667.15
2018-12-14T09:15:06.593Z,98670.91
2018-12-14T09:17:36.158Z,98671.52
2018-12-14T09:20:06.014Z,98672.05
2018-12-14T09:22:35.659Z,98674.61
2018-12-14T09:25:05.667Z,98683.66
2018-12-14T09:27:35.304Z,98684.09
2018-12-14T09:30:05.443Z,98684.74
2018-12-14T09:32:35.128Z,98686.04
2018-12-14T09:35:05.140Z,98686.04
2018-12-14T09:37:34.789Z,98688.55
2018-12-14T09:40:05.195Z,98681.93
2018-12-14T09:42:34.828Z,98685.64
2018-12-14T09:45:04.625Z,98682.95
2018-12-14T09:47:34.190Z,98689.49
2018-12-14T09:50:04.151Z,98687.40
2018-12-14T09:52:33.743Z,98692.44
2018-12-14T09:55:03.496Z,98695.72
2018-12-14T09:57:33.097Z,98698.64
2018-12-14T10:00:02.807Z,98700.59
2018-12-14T10:02:32.426Z,98700.38
2018-12-14T10:05:02.239Z,98695.87
2018-12-14T10:07:31.881Z,98693.08
2018-12-14T10:10:01.633Z,98701.78
2018-12-14T10:12:31.249Z,98700.74
2018-12-14T10:15:00.934Z,98697.56
2018-12-14T10:17:30.570Z,98699.91
2018-12-14T10:20:00.256Z,98701.07
2018-12-14T10:22:29.880Z,98708.22
2018-12-14T10:24:59.492Z,98706.77
2018-12-14T10:27:29.145Z,98700.55
2018-12-14T10:29:58.796Z,98705.67
2018-12-14T10:32:28.459Z,98699.91
2018-12-14T10:34:58.123Z,98696.72
2018-12-14T10:37:27.760Z,98695.16
2018-12-14T10:39:57.405Z,98691.13
2018-12-14T10:42:27.017Z,98687.84
2018-12-14T10:44:56.754Z,98691.44
2018-12-14T10:47:26.555Z,98691.58
2018-12-14T10:49:56.252Z,98696.47
2018-12-14T10:52:25.973Z,98691.13
2018-12-14T10:54:55.749Z,98689.86
2018-12-14T10:57:25.313Z,98690.55
2018-12-14T10:59:54.954Z,98687.55
2018-12-14T11:02:24.543Z,98692.19
2018-12-14T11:04:54.174Z,98690.49
2018-12-14T11:07:23.788Z,98681.48
2018-12-14T11:09:53.389Z,98683.48
2018-12-14T11:12:23.010Z,98696.11
2018-12-14T11:14:52.574Z,98688.80
2018-12-14T11:17:22.215Z,98691.88
2018-12-14T11:19:51.784Z,98695.08
2018-12-14T11:22:21.406Z,98688.80
2018-12-14T11:24:50.973Z,98689.09
2018-12-14T11:27:20.640Z,98691.67
2018-12-14T11:29:50.213Z,98694.47
2018-12-14T11:32:19.944Z,98699.36
2018-12-14T11:34:49.583Z,98699.84
2018-12-14T11:37:19.289Z,98697.97
2018-12-14T11:39:48.867Z,98697.20
2018-12-14T11:42:18.435Z,98692.83
2018-12-14T11:44:48.031Z,98695.02
2018-12-14T11:47:18.276Z,98696.97
2018-12-14T11:49:48.601Z,98695.47
2018-12-14T11:52:18.374Z,98694.92
2018-12-14T11:54:47.976Z,98696.27
2018-12-14T11:57:17.706Z,98693.67
2018-12-14T11:59:47.331Z,98689.89
2018-12-14T12:02:17.045Z,98696.27
2018-12-14T12:04:46.657Z,98696.41
2018-12-14T12:07:16.353Z,98705.82
2018-12-14T12:09:46.047Z,98703.19
2018-12-14T12:12:15.655Z,98695.77
2018-12-14T12:14:45.356Z,98696.41
2018-12-14T12:17:14.964Z,98689.41
2018-12-14T12:19:44.645Z,98688.25
2018-12-14T12:22:14.254Z,98687.55
2018-12-14T12:24:43.919Z,98693.69
2018-12-14T12:27:13.707Z,98690.09
2018-12-14T12:29:43.321Z,98693.73
2018-12-14T12:32:12.936Z,98698.72
2018-12-14T12:34:42.606Z,98693.59
2018-12-14T12:37:12.222Z,98690.40
2018-12-14T12:39:41.839Z,98695.63
2018-12-14T12:42:11.589Z,98691.89
2018-12-14T12:44:41.230Z,98687.61
2018-12-14T12:47:10.853Z,98687.70
2018-12-14T12:49:40.605Z,98682.08
2018-12-14T12:52:10.238Z,98684.13
2018-12-14T12:54:39.885Z,98682.42
2018-12-14T12:57:09.488Z,98684.13
2018-12-14T12:59:39.386Z,98689.48
2018-12-14T13:02:09.009Z,98682.17
2018-12-14T13:04:39.234Z,98686.45
2018-12-14T13:07:08.943Z,98688.30
2018-12-14T13:09:38.551Z,98691.98
2018-12-14T13:12:08.189Z,98690.88
2018-12-14T13:14:40.133Z,98694.38
2018-12-14T13:17:09.622Z,98686.36
2018-12-14T13:19:39.307Z,98688.48
2018-12-14T13:22:09.027Z,98688.00
2018-12-14T13:24:38.654Z,98697.41
2018-12-14T13:27:08.356Z,98696.80
2018-12-14T13:29:37.969Z,98693.62
2018-12-14T13:32:08.046Z,98702.16
2018-12-14T13:34:37.662Z,98707.61
2018-12-14T13:37:07.379Z,98706.74
2018-12-14T13:39:37.088Z,98705.55
2018-12-14T13:42:06.840Z,98711.63
2018-12-14T13:44:36.854Z,98712.43
2018-12-14T13:47:06.654Z,98709.95
2018-12-14T13:49:36.282Z,98713.91
2018-12-14T13:52:05.944Z,98713.36
2018-12-14T13:54:35.529Z,98716.55
2018-12-14T13:57:05.202Z,98719.73
2018-12-14T13:59:34.966Z,98726.72
2018-12-14T14:02:04.670Z,98726.71
2018-12-14T14:04:35.920Z,98731.31
2018-12-14T14:07:05.639Z,98739.00
2018-12-14T14:09:35.319Z,98738.26
2018-12-14T14:12:04.880Z,98738.80
2018-12-14T14:14:34.526Z,98742.69
2018-12-14T14:17:04.111Z,98746.42
2018-12-14T14:19:33.754Z,98747.55
2018-12-14T14:22:03.333Z,98755.25
2018-12-14T14:24:32.969Z,98762.27
2018-12-14T14:27:02.570Z,98768.84
2018-12-14T14:29:32.194Z,98771.66
2018-12-14T14:32:01.772Z,98771.84
2018-12-14T14:34:31.366Z,98766.23
2018-12-14T14:37:00.937Z,98774.80
2018-12-14T14:39:30.582Z,98769.70
2018-12-14T14:42:00.182Z,98770.10
2018-12-14T14:44:29.805Z,98771.42
2018-12-14T14:46:59.376Z,98777.80
2018-12-14T14:49:29.033Z,98773.66
2018-12-14T14:51:58.675Z,98781.28
2018-12-14T14:54:28.378Z,98778.38
2018-12-14T14:56:57.999Z,98777.66
2018-12-14T14:59:27.756Z,98777.98
2018-12-14T15:01:57.369Z,98772.98
2018-12-14T15:04:27.018Z,98777.36
2018-12-14T15:06:56.746Z,98781.14
2018-12-14T15:09:26.374Z,98787.31
2018-12-14T15:11:55.991Z,98788.13
2018-12-14T15:14:25.636Z,98791.94
2018-12-14T15:16:55.337Z,98788.92
2018-12-14T15:19:24.978Z,98801.86
2018-12-14T15:21:54.682Z,98809.98
2018-12-14T15:24:24.302Z,98807.63
2018-12-14T15:26:53.959Z,98802.02
2018-12-14T15:29:23.600Z,98812.59
2018-12-14T15:31:53.634Z,98810.09
2018-12-14T15:34:23.277Z,98812.72
2018-12-14T15:36:52.903Z,98813.65
2018-12-14T15:39:22.548Z,98815.93
2018-12-14T15:41:52.180Z,98818.33
2018-12-14T15:44:21.872Z,98821.97
2018-12-14T15:46:52.589Z,98826.92
2018-12-14T15:49:22.230Z,98827.84
2018-12-14T15:51:51.846Z,98833.81
2018-12-14T15:54:21.417Z,98831.09
2018-12-14T15:56:50.999Z,98832.30
2018-12-14T15:59:21.127Z,98836.05
2018-12-14T16:01:52.533Z,98832.11
2018-12-14T16:04:22.159Z,98835.13
2018-12-14T16:06:51.731Z,98832.96
2018-12-14T16:09:21.342Z,98844.20
2018-12-14T16:11:51.041Z,98846.02
2018-12-14T16:14:20.758Z,98850.05
2018-12-14T16:16:50.507Z,98850.97
2018-12-14T16:19:20.148Z,98852.20
2018-12-14T16:21:49.761Z,98854.33
2018-12-14T16:24:19.325Z,98857.13
2018-12-14T16:26:48.938Z,98862.34
2018-12-14T16:29:18.656Z,98865.19
2018-12-14T16:31:48.248Z,98865.19
2018-12-14T16:34:17.935Z,98867.30
2018-12-14T16:36:47.548Z,98862.70
2018-12-14T16:39:17.310Z,98860.53
2018-12-14T16:41:46.993Z,98872.16
2018-12-14T16:44:16.785Z,98875.14
2018-12-14T16:46:46.411Z,98870.78
2018-12-14T16:49:16.084Z,98877.59
2018-12-14T16:51:45.829Z,98872.94
2018-12-14T16:54:15.694Z,98869.17
2018-12-14T16:56:45.285Z,98872.87
2018-12-14T16:59:14.939Z,98876.81
2018-12-14T17:01:44.525Z,98878.41
2018-12-14T17:04:14.345Z,98871.92
2018-12-14T17:06:43.957Z,98870.81
2018-12-14T17:09:13.549Z,98869.97
2018-12-14T17:11:43.232Z,98867.02
2018-12-14T17:14:12.928Z,98865.37
2018-12-14T17:16:42.593Z,98869.50
2018-12-14T17:19:12.166Z,98859.94
2018-12-14T17:21:41.843Z,98864.77
2018-12-14T17:24:11.439Z,98867.98
2018-12-14T17:26:41.079Z,98868.16
2018-12-14T17:29:10.672Z,98869.73
2018-12-14T17:31:40.354Z,98865.73
2018-12-14T17:34:09.971Z,98864.77
2018-12-14T17:36:39.823Z,98870.77
2018-12-14T17:39:09.672Z,98868.11
2018-12-14T17:41:39.389Z,98873.98
2018-12-14T17:44:08.977Z,98880.42
2018-12-14T17:46:38.768Z,98880.00
2018-12-14T17:49:08.347Z,98880.17
2018-12-14T17:51:38.424Z,98883.45
2018-12-14T17:54:08.040Z,98887.58
2018-12-14T17:56:37.785Z,98895.99
2018-12-14T17:59:07.465Z,98892.78
2018-12-14T18:01:37.341Z,98896.97
2018-12-14T18:04:07.027Z,98900.16
2018-12-14T18:06:36.684Z,98890.95
2018-12-14T18:09:07.287Z,98897.53
2018-12-14T18:11:36.922Z,98899.66
2018-12-14T18:14:06.694Z,98907.62
2018-12-14T18:16:36.743Z,98917.74
2018-12-14T18:19:06.396Z,98917.13
2018-12-14T18:21:36.043Z,98925.63
2018-12-14T18:24:05.693Z,98927.53
2018-12-14T18:26:35.362Z,98927.66
2018-12-14T18:29:05.016Z,98926.58
2018-12-14T18:31:34.644Z,98933.00
2018-12-14T18:34:04.304Z,98932.61
2018-12-14T18:36:33.872Z,98939.97
2018-12-14T18:39:04.746Z,98941.63
2018-12-14T18:41:34.442Z,98940.61
2018-12-14T18:44:04.077Z,98943.09
2018-12-14T18:46:33.572Z,98946.15
2018-12-14T18:49:03.257Z,98943.66
2018-12-14T18:51:32.893Z,98948.14
2018-12-14T18:54:02.614Z,98948.69
2018-12-14T18:56:32.243Z,98949.93
2018-12-14T18:59:02.163Z,98944.77
2018-12-14T19:01:31.784Z,98950.59
2018-12-14T19:04:01.511Z,98951.92
2018-12-14T19:06:31.141Z,98951.80
2018-12-14T19:09:00.751Z,98955.07
2018-12-14T19:11:30.480Z,98955.38
2018-12-14T19:14:00.216Z,98960.47
2018-12-14T19:16:29.822Z,98964.47
2018-12-14T19:18:59.650Z,98965.20
2018-12-14T19:21:29.283Z,98967.18
2018-12-14T19:23:58.963Z,98972.70
2018-12-14T19:26:28.597Z,98968.59
2018-12-14T19:28:58.249Z,98975.27
2018-12-14T19:31:27.886Z,98974.02
2018-12-14T19:33:57.591Z,98977.95
2018-12-14T19:36:27.232Z,98981.20
2018-12-14T19:38:57.397Z,98980.21
2018-12-14T19:41:27.143Z,98980.34
2018-12-14T19:43:56.804Z,98985.15
2018-12-14T19:46:26.421Z,98988.22
2018-12-14T19:48:56.119Z,98996.47
2018-12-14T19:51:25.715Z,98992.63
2018-12-14T19:53:55.406Z,99000.31
2018-12-14T19:56:25.021Z,98997.97
2018-12-14T19:58:54.739Z,99006.99
2018-12-14T20:01:24.479Z,99002.19
2018-12-14T20:03:54.127Z,99005.59
2018-12-14T20:06:23.852Z,99006.77
2018-12-14T20:08:53.418Z,99005.02
2018-12-14T20:11:23.065Z,99010.27
2018-12-14T20:13:52.634Z,99008.81
2018-12-14T20:16:22.239Z,99013.77
2018-12-14T20:18:51.877Z,99020.73
2018-12-14T20:21:21.473Z,99020.33
2018-12-14T20:23:51.110Z,99018.48
2018-12-14T20:26:20.718Z,99017.12
2018-12-14T20:28:50.440Z,99021.07
2018-12-14T20:31:20.062Z,99020.52
2018-12-14T20:33:49.696Z,99029.46
2018-12-14T20:36:19.306Z,99032.10
2018-12-14T20:38:48.930Z,99031.95
2018-12-14T20:41:18.544Z,99033.17
2018-12-14T20:43:48.152Z,99031.83
2018-12-14T20:46:19.439Z,99033.24
2018-12-14T20:48:49.328Z,99034.08
2018-12-14T20:51:18.973Z,99029.61
2018-12-14T20:53:50.515Z,99036.41
2018-12-14T20:56:20.439Z,99036.56
2018-12-14T20:58:50.131Z,99034.32
2018-12-14T21:01:19.796Z,99030.63
2018-12-14T21:03:49.625Z,99021.70
2018-12-14T21:06:19.254Z,99026.69
2018-12-14T21:08:48.862Z,99033.20
2018-12-14T21:11:18.531Z,99027.53
2018-12-14T21:13:48.631Z,99029.46
2018-12-14T21:16:18.328Z,99034.83
2018-12-14T21:18:48.024Z,99042.98
2018-12-14T21:21:17.702Z,99043.48
2018-12-14T21:23:47.441Z,99043.18
2018-12-14T21:26:17.097Z,99046.30
2018-12-14T21:28:46.876Z,99047.11
2018-12-14T21:31:16.473Z,99053.66
2018-12-14T21:33:46.201Z,99050.20
2018-12-14T21:36:15.918Z,99051.50
2018-12-14T21:38:45.775Z,99036.69
2018-12-14T21:41:15.780Z,99031.88
2018-12-14T21:43:45.617Z,99031.85
2018-12-14T21:46:15.317Z,99034.74
2018-12-14T21:48:45.172Z,99033.45
2018-12-14T21:51:15.021Z,99034.14
2018-12-14T21:53:44.783Z,99033.40
2018-12-14T21:56:14.868Z,99039.05
2018-12-14T21:58:44.695Z,99032.95
2018-12-14T22:01:14.530Z,99037.09
2018-12-14T22:03:44.351Z,99031.65
2018-12-14T22:06:14.151Z,99037.48
2018-12-14T22:08:44.071Z,99042.01
2018-12-14T22:11:13.860Z,99041.89
2018-12-14T22:13:43.570Z,99044.89
2018-12-14T22:16:13.262Z,99033.59
2018-12-14T22:18:43.131Z,99039.08
2018-12-14T22:21:13.015Z,99037.09
2018-12-14T22:23:42.672Z,99036.98
2018-12-14T22:26:12.281Z,99036.30
2018-12-14T22:28:41.994Z,99039.29
2018-12-14T22:31:11.568Z,99032.72
2018-12-14T22:33:41.176Z,99029.73
2018-12-14T22:36:10.732Z,99027.03
2018-12-14T22:38:40.397Z,99029.56
2018-12-14T22:41:10.003Z,99023.41
2018-12-14T22:43:39.678Z,99021.70
2018-12-14T22:46:09.279Z,99022.06
2018-12-14T22:48:38.955Z,99019.28
2018-12-14T22:51:08.577Z,99023.45
2018-12-14T22:53:38.380Z,99029.22
2018-12-14T22:56:07.994Z,99026.97
2018-12-14T22:58:37.739Z,99026.44
2018-12-14T23:01:07.396Z,99023.30
2018-12-14T23:03:37.572Z,99027.19
2018-12-14T23:06:07.293Z,99030.09
2018-12-14T23:08:36.930Z,99031.20
2018-12-14T23:11:06.678Z,99025.39
2018-12-14T23:13:36.263Z,99030.03
2018-12-14T23:16:05.980Z,99025.95
2018-12-14T23:18:35.597Z,99024.41
2018-12-14T23:21:05.298Z,99025.50
2018-12-14T23:23:35.234Z,99023.63
2018-12-14T23:26:04.955Z,99027.88
2018-12-14T23:28:34.555Z,99026.91
2018-12-14T23:31:04.325Z,99020.92
2018-12-14T23:33:33.941Z,99024.41
2018-12-14T23:36:03.827Z,99027.09
2018-12-14T23:38:33.494Z,99030.14
2018-12-14T23:41:03.222Z,99026.44
2018-12-14T23:43:33.035Z,99029.34
2018-12-14T23:46:02.652Z,99021.31
2018-12-14T23:48:32.352Z,99028.20
2018-12-14T23:51:01.994Z,99024.26
2018-12-14T23:53:31.583Z,99023.52
2018-12-14T23:56:01.264Z,99021.03
2018-12-14T23:58:30.878Z,99024.19
